Kezdőlap
METAR-TAF:

Repülőterek :

Budapest, Magyarország

Budapest Liszt Ferenc nemzetközi repülőtér

földrajzi szélesség: 47-26N, földrajzi hosszúság: 019-16E, magasság: 151 m

Jelenlegi meteorológiai megfigyelések

A jelentés 26 perccel ezelõtt készült, 06:30 UTC
Szélcsend
Hőmérséklet 13°C
Páratartalom 72%
Légköri nyomás 1025 hPa
Látótávolság 10 km, vagy több
felhőtlen 1500 m magasságban, és nincs gomolyfelhõ

METAR: LHBP 270630Z 00000KT CAVOK 13/08 Q1025 NOSIG

Idő: 08:56 (06:56 UTC)

Előrejelzés

A jelentés 1 órával és 56 perccel ezelõtt készült, 05:00 UTC
Az előrejelzés 27-én 06 óra UTC és 28-én 06 óra UTC között érvényes
Különbözõ irányokból fújó szél 3 kt
Látótávolság 10 km, vagy több
felhőtlen 1500 m magasságban, és nincs gomolyfelhõ

TAF: LHBP 270500Z 2706/2806 VRB03KT CAVOK

METAR-TAF

Meteorológiai megfigyelések és előrejelzések több, mint 4000 repülőtéren (METAR és TAF jelentéseket).

A térképen piros és sárga pontok jelzik az elérhető meteorológiai állomásokat.

Mozgassa az egeret a pont fölött, hogy megjelenjen az állomás neve.

Azután kattintson az időjárási megfigyelések és előrejelzések megtekintéséhez.

A térkép megváltoztatása: kattintson a fekete keresztel jelölt zöld gombra ráközelítéshez, a vonallal jelölt zöld gombra távolításhoz, vagy a zöld nyilakra a szomszédos térképek eléréséhez.


METAR-TAF: